sensor_id;sensor_type;location;lat;lon;timestamp;pressure;altitude;pressure_sealevel;temperature;humidity
65534;BME280;53640;55.838;37.184;2023-03-03T00:01:31;97765.59;;;-2.54;64.82
65534;BME280;53640;55.838;37.184;2023-03-03T00:03:58;97679.28;;;-3.02;64.79
65534;BME280;53640;55.838;37.184;2023-03-03T00:06:25;97733.91;;;-2.70;64.55
65534;BME280;53640;55.838;37.184;2023-03-03T00:08:55;97735.84;;;-2.64;64.83
65534;BME280;53640;55.838;37.184;2023-03-03T00:11:22;97768.66;;;-2.42;64.85
65534;BME280;53640;55.838;37.184;2023-03-03T00:13:54;97754.19;;;-2.54;64.78
65534;BME280;53640;55.838;37.184;2023-03-03T00:16:28;97762.56;;;-2.43;64.67
65534;BME280;53640;55.838;37.184;2023-03-03T00:19:23;97635.34;;;-3.12;64.38
65534;BME280;53640;55.838;37.184;2023-03-03T00:21:51;97728.69;;;-2.55;64.46
65534;BME280;53640;55.838;37.184;2023-03-03T00:24:23;97690.19;;;-2.66;64.51
65534;BME280;53640;55.838;37.184;2023-03-03T00:26:55;97721.66;;;-2.48;64.32
65534;BME280;53640;55.838;37.184;2023-03-03T00:29:36;97708.97;;;-2.53;64.21
65534;BME280;53640;55.838;37.184;2023-03-03T00:34:43;97707.78;;;-2.50;64.44
65534;BME280;53640;55.838;37.184;2023-03-03T00:37:32;97743.19;;;-2.20;64.31
65534;BME280;53640;55.838;37.184;2023-03-03T00:42:27;97723.50;;;-2.26;64.24
65534;BME280;53640;55.838;37.184;2023-03-03T00:44:58;97741.03;;;-2.17;64.29
65534;BME280;53640;55.838;37.184;2023-03-03T00:53:24;97689.31;;;-2.36;64.29
65534;BME280;53640;55.838;37.184;2023-03-03T00:55:25;97719.50;;;-2.22;64.53
65534;BME280;53640;55.838;37.184;2023-03-03T00:57:52;97692.44;;;-2.32;64.44
65534;BME280;53640;55.838;37.184;2023-03-03T01:00:23;97704.81;;;-2.24;64.52
65534;BME280;53640;55.838;37.184;2023-03-03T01:02:50;97586.44;;;-2.93;64.79
65534;BME280;53640;55.838;37.184;2023-03-03T01:05:18;97676.94;;;-2.43;64.68
65534;BME280;53640;55.838;37.184;2023-03-03T01:07:44;97703.78;;;-2.23;65.00
65534;BME280;53640;55.838;37.184;2023-03-03T01:10:11;97656.28;;;-2.48;64.85
65534;BME280;53640;55.838;37.184;2023-03-03T01:12:38;97659.75;;;-2.47;64.84
65534;BME280;53640;55.838;37.184;2023-03-03T01:15:07;97633.84;;;-2.60;65.31
65534;BME280;53640;55.838;37.184;2023-03-03T01:17:37;97644.91;;;-2.57;65.12
65534;BME280;53640;55.838;37.184;2023-03-03T01:20:12;97678.88;;;-2.37;65.56
65534;BME280;53640;55.838;37.184;2023-03-03T01:22:39;97613.06;;;-2.71;65.08
65534;BME280;53640;55.838;37.184;2023-03-03T01:25:12;97688.13;;;-2.33;65.52
65534;BME280;53640;55.838;37.184;2023-03-03T01:27:38;97637.31;;;-2.60;65.20
65534;BME280;53640;55.838;37.184;2023-03-03T01:30:06;97703.91;;;-2.17;65.64
65534;BME280;53640;55.838;37.184;2023-03-03T01:32:33;97707.59;;;-2.18;65.50
65534;BME280;53640;55.838;37.184;2023-03-03T01:35:00;97655.41;;;-2.40;65.38
65534;BME280;53640;55.838;37.184;2023-03-03T01:37:26;97678.00;;;-2.29;65.57
65534;BME280;53640;55.838;37.184;2023-03-03T01:39:54;97683.72;;;-2.18;65.50
65534;BME280;53640;55.838;37.184;2023-03-03T01:42:23;97649.91;;;-2.39;65.58
65534;BME280;53640;55.838;37.184;2023-03-03T01:48:09;97656.97;;;-2.31;65.76
65534;BME280;53640;55.838;37.184;2023-03-03T01:50:54;97638.97;;;-2.36;65.64
65534;BME280;53640;55.838;37.184;2023-03-03T01:53:29;97667.16;;;-2.20;65.85
65534;BME280;53640;55.838;37.184;2023-03-03T01:55:58;97659.22;;;-2.20;65.78
65534;BME280;53640;55.838;37.184;2023-03-03T01:58:56;97671.75;;;-2.14;65.86
65534;BME280;53640;55.838;37.184;2023-03-03T02:01:28;97589.63;;;-2.60;65.65
65534;BME280;53640;55.838;37.184;2023-03-03T02:03:58;97678.47;;;-2.03;65.66
65534;BME280;53640;55.838;37.184;2023-03-03T02:06:41;97666.03;;;-2.02;65.69
65534;BME280;53640;55.838;37.184;2023-03-03T02:09:22;97608.00;;;-2.35;65.73
65534;BME280;53640;55.838;37.184;2023-03-03T02:12:00;97623.34;;;-2.30;65.84
65534;BME280;53640;55.838;37.184;2023-03-03T02:14:28;97631.34;;;-2.16;65.88
65534;BME280;53640;55.838;37.184;2023-03-03T02:16:55;97628.06;;;-2.18;65.69
65534;BME280;53640;55.838;37.184;2023-03-03T02:21:53;97603.44;;;-2.26;65.76
65534;BME280;53640;55.838;37.184;2023-03-03T02:24:36;97597.31;;;-2.27;66.02
65534;BME280;53640;55.838;37.184;2023-03-03T02:27:04;97592.72;;;-2.33;65.76
65534;BME280;53640;55.838;37.184;2023-03-03T02:29:31;97576.56;;;-2.38;65.96
65534;BME280;53640;55.838;37.184;2023-03-03T02:31:58;97567.44;;;-2.36;65.74
65534;BME280;53640;55.838;37.184;2023-03-03T02:34:25;97575.31;;;-2.27;65.99
65534;BME280;53640;55.838;37.184;2023-03-03T02:36:51;97607.75;;;-2.11;65.82
65534;BME280;53640;55.838;37.184;2023-03-03T02:39:25;97637.41;;;-1.92;65.81
65534;BME280;53640;55.838;37.184;2023-03-03T02:42:22;97608.41;;;-2.09;66.33
65534;BME280;53640;55.838;37.184;2023-03-03T02:44:55;97603.13;;;-2.09;66.34
65534;BME280;53640;55.838;37.184;2023-03-03T02:47:21;97604.50;;;-2.13;66.27
65534;BME280;53640;55.838;37.184;2023-03-03T02:49:48;97594.25;;;-2.16;66.27
65534;BME280;53640;55.838;37.184;2023-03-03T02:52:14;97604.75;;;-2.08;66.40
65534;BME280;53640;55.838;37.184;2023-03-03T02:54:45;97535.06;;;-2.46;66.45
65534;BME280;53640;55.838;37.184;2023-03-03T02:57:12;97556.84;;;-2.36;66.24
65534;BME280;53640;55.838;37.184;2023-03-03T02:59:38;97594.16;;;-2.08;66.67
65534;BME280;53640;55.838;37.184;2023-03-03T03:02:10;97578.88;;;-2.20;66.42
65534;BME280;53640;55.838;37.184;2023-03-03T03:04:37;97601.28;;;-2.08;66.77
65534;BME280;53640;55.838;37.184;2023-03-03T03:07:04;97589.59;;;-2.14;66.42
65534;BME280;53640;55.838;37.184;2023-03-03T03:09:32;97609.97;;;-1.99;66.79
65534;BME280;53640;55.838;37.184;2023-03-03T03:11:59;97592.88;;;-2.12;66.68
65534;BME280;53640;55.838;37.184;2023-03-03T03:14:30;97580.72;;;-2.21;66.90
65534;BME280;53640;55.838;37.184;2023-03-03T03:16:56;97600.84;;;-1.97;66.70
65534;BME280;53640;55.838;37.184;2023-03-03T03:19:22;97568.91;;;-2.18;66.63
65534;BME280;53640;55.838;37.184;2023-03-03T03:21:49;97609.63;;;-1.96;66.55
65534;BME280;53640;55.838;37.184;2023-03-03T03:24:16;97571.88;;;-2.13;66.91
65534;BME280;53640;55.838;37.184;2023-03-03T03:26:49;97565.63;;;-2.20;66.81
65534;BME280;53640;55.838;37.184;2023-03-03T03:29:15;97499.78;;;-2.61;67.09
65534;BME280;53640;55.838;37.184;2023-03-03T03:31:42;97603.03;;;-2.00;66.95
65534;BME280;53640;55.838;37.184;2023-03-03T03:34:10;97505.66;;;-2.51;66.95
65534;BME280;53640;55.838;37.184;2023-03-03T03:36:36;97538.75;;;-2.32;67.00
65534;BME280;53640;55.838;37.184;2023-03-03T03:39:06;97542.50;;;-2.26;67.15
65534;BME280;53640;55.838;37.184;2023-03-03T03:41:35;97556.22;;;-2.23;66.99
65534;BME280;53640;55.838;37.184;2023-03-03T03:44:02;97547.25;;;-2.22;66.92
65534;BME280;53640;55.838;37.184;2023-03-03T03:46:28;97532.63;;;-2.33;66.94
65534;BME280;53640;55.838;37.184;2023-03-03T03:48:55;97535.91;;;-2.30;67.12
65534;BME280;53640;55.838;37.184;2023-03-03T03:51:21;97553.84;;;-2.18;66.77
65534;BME280;53640;55.838;37.184;2023-03-03T03:53:49;97568.66;;;-2.09;66.89
65534;BME280;53640;55.838;37.184;2023-03-03T03:56:19;97559.78;;;-2.16;66.93
65534;BME280;53640;55.838;37.184;2023-03-03T03:58:49;97521.13;;;-2.40;66.87
65534;BME280;53640;55.838;37.184;2023-03-03T04:01:16;97551.25;;;-2.26;67.06
65534;BME280;53640;55.838;37.184;2023-03-03T04:03:46;97572.69;;;-2.13;66.94
65534;BME280;53640;55.838;37.184;2023-03-03T04:06:18;97573.31;;;-2.11;67.07
65534;BME280;53640;55.838;37.184;2023-03-03T04:08:45;97540.41;;;-2.31;67.17
65534;BME280;53640;55.838;37.184;2023-03-03T04:11:13;97530.16;;;-2.34;67.19
65534;BME280;53640;55.838;37.184;2023-03-03T04:13:39;97570.31;;;-2.08;66.88
65534;BME280;53640;55.838;37.184;2023-03-03T04:16:09;97557.50;;;-2.19;66.95
65534;BME280;53640;55.838;37.184;2023-03-03T04:18:36;97568.66;;;-2.09;66.98
65534;BME280;53640;55.838;37.184;2023-03-03T04:21:03;97566.66;;;-2.06;67.03
65534;BME280;53640;55.838;37.184;2023-03-03T04:23:31;97568.09;;;-2.04;66.79
65534;BME280;53640;55.838;37.184;2023-03-03T04:26:00;97525.16;;;-2.29;66.96
65534;BME280;53640;55.838;37.184;2023-03-03T04:28:27;97545.97;;;-2.26;67.10
65534;BME280;53640;55.838;37.184;2023-03-03T04:30:55;97520.91;;;-2.38;66.82
65534;BME280;53640;55.838;37.184;2023-03-03T04:33:26;97542.97;;;-2.23;66.83
65534;BME280;53640;55.838;37.184;2023-03-03T04:35:55;97526.50;;;-2.33;66.86
65534;BME280;53640;55.838;37.184;2023-03-03T04:38:21;97542.78;;;-2.21;66.92
65534;BME280;53640;55.838;37.184;2023-03-03T04:40:49;97527.50;;;-2.34;67.09
65534;BME280;53640;55.838;37.184;2023-03-03T04:43:17;97536.84;;;-2.23;66.83
65534;BME280;53640;55.838;37.184;2023-03-03T04:45:43;97573.78;;;-2.07;66.96
65534;BME280;53640;55.838;37.184;2023-03-03T04:48:11;97517.66;;;-2.40;66.92
65534;BME280;53640;55.838;37.184;2023-03-03T04:50:37;97523.22;;;-2.35;66.82
65534;BME280;53640;55.838;37.184;2023-03-03T04:53:05;97558.31;;;-2.18;66.95
65534;BME280;53640;55.838;37.184;2023-03-03T04:55:34;97471.91;;;-2.72;66.81
65534;BME280;53640;55.838;37.184;2023-03-03T04:58:05;97584.38;;;-2.07;67.02
65534;BME280;53640;55.838;37.184;2023-03-03T05:00:36;97538.66;;;-2.24;66.81
65534;BME280;53640;55.838;37.184;2023-03-03T05:03:03;97527.34;;;-2.33;66.52
65534;BME280;53640;55.838;37.184;2023-03-03T05:05:29;97545.44;;;-2.21;66.74
65534;BME280;53640;55.838;37.184;2023-03-03T05:08:00;97502.72;;;-2.56;66.70
65534;BME280;53640;55.838;37.184;2023-03-03T05:10:26;97534.81;;;-2.36;66.92
65534;BME280;53640;55.838;37.184;2023-03-03T05:12:52;97525.41;;;-2.39;66.68
65534;BME280;53640;55.838;37.184;2023-03-03T05:15:20;97522.00;;;-2.47;66.79
65534;BME280;53640;55.838;37.184;2023-03-03T05:17:46;97565.63;;;-2.20;66.71
65534;BME280;53640;55.838;37.184;2023-03-03T05:20:14;97579.16;;;-2.15;67.05
65534;BME280;53640;55.838;37.184;2023-03-03T05:22:49;97564.16;;;-2.23;66.58
65534;BME280;53640;55.838;37.184;2023-03-03T05:25:20;97546.06;;;-2.34;66.62
65534;BME280;53640;55.838;37.184;2023-03-03T05:27:47;97534.91;;;-2.44;66.88
65534;BME280;53640;55.838;37.184;2023-03-03T05:30:14;97558.69;;;-2.21;66.79
65534;BME280;53640;55.838;37.184;2023-03-03T05:32:40;97535.53;;;-2.42;66.66
65534;BME280;53640;55.838;37.184;2023-03-03T05:35:07;97477.28;;;-2.80;66.86
65534;BME280;53640;55.838;37.184;2023-03-03T05:37:34;97556.56;;;-2.26;66.71
65534;BME280;53640;55.838;37.184;2023-03-03T05:40:16;97569.38;;;-2.15;66.76
65534;BME280;53640;55.838;37.184;2023-03-03T05:42:54;97517.22;;;-2.52;66.89
65534;BME280;53640;55.838;37.184;2023-03-03T05:45:20;97506.00;;;-2.54;66.91
65534;BME280;53640;55.838;37.184;2023-03-03T05:47:50;97469.34;;;-2.80;66.72
65534;BME280;53640;55.838;37.184;2023-03-03T05:50:19;97579.63;;;-2.12;66.53
65534;BME280;53640;55.838;37.184;2023-03-03T05:52:55;97585.59;;;-2.10;66.92
65534;BME280;53640;55.838;37.184;2023-03-03T05:55:24;97526.22;;;-2.38;66.75
65534;BME280;53640;55.838;37.184;2023-03-03T05:57:50;97549.28;;;-2.24;66.59
65534;BME280;53640;55.838;37.184;2023-03-03T06:00:22;97573.50;;;-2.12;66.16
65534;BME280;53640;55.838;37.184;2023-03-03T06:02:48;97532.34;;;-2.38;66.12
65534;BME280;53640;55.838;37.184;2023-03-03T06:05:15;97578.09;;;-2.06;66.15
65534;BME280;53640;55.838;37.184;2023-03-03T06:07:41;97574.63;;;-2.06;66.49
65534;BME280;53640;55.838;37.184;2023-03-03T06:10:08;97571.88;;;-2.13;66.72
65534;BME280;53640;55.838;37.184;2023-03-03T06:12:39;97580.66;;;-1.98;66.64
65534;BME280;53640;55.838;37.184;2023-03-03T06:15:09;97581.13;;;-1.94;66.39
65534;BME280;53640;55.838;37.184;2023-03-03T06:17:35;97579.84;;;-1.98;66.80
65534;BME280;53640;55.838;37.184;2023-03-03T06:20:03;97563.47;;;-2.02;66.78
65534;BME280;53640;55.838;37.184;2023-03-03T06:22:57;97495.44;;;-2.39;66.55
65534;BME280;53640;55.838;37.184;2023-03-03T06:25:27;97484.38;;;-2.43;66.50
65534;BME280;53640;55.838;37.184;2023-03-03T06:27:53;97517.94;;;-2.20;66.28
65534;BME280;53640;55.838;37.184;2023-03-03T06:30:20;97540.16;;;-2.06;66.70
65534;BME280;53640;55.838;37.184;2023-03-03T06:32:47;97524.06;;;-2.20;66.56
65534;BME280;53640;55.838;37.184;2023-03-03T06:35:17;97471.22;;;-2.51;66.34
65534;BME280;53640;55.838;37.184;2023-03-03T06:37:44;97446.91;;;-2.69;66.07
65534;BME280;53640;55.838;37.184;2023-03-03T06:40:13;97543.78;;;-2.08;65.97
65534;BME280;53640;55.838;37.184;2023-03-03T06:42:40;97572.72;;;-1.83;66.04
65534;BME280;53640;55.838;37.184;2023-03-03T06:45:12;97508.88;;;-2.26;66.20
65534;BME280;53640;55.838;37.184;2023-03-03T06:47:54;97444.34;;;-2.63;65.93
65534;BME280;53640;55.838;37.184;2023-03-03T06:50:24;97523.97;;;-2.12;65.95
65534;BME280;53640;55.838;37.184;2023-03-03T06:53:15;97445.63;;;-2.59;65.85
65534;BME280;53640;55.838;37.184;2023-03-03T06:55:44;97538.59;;;-2.01;65.64
65534;BME280;53640;55.838;37.184;2023-03-03T06:58:14;97509.53;;;-2.09;65.36
65534;BME280;53640;55.838;37.184;2023-03-03T07:00:56;97543.19;;;-1.95;65.43
65534;BME280;53640;55.838;37.184;2023-03-03T07:03:33;97473.44;;;-2.40;65.52
65534;BME280;53640;55.838;37.184;2023-03-03T07:06:13;97501.38;;;-2.22;65.46
65534;BME280;53640;55.838;37.184;2023-03-03T07:08:41;97486.50;;;-2.23;65.51
65534;BME280;53640;55.838;37.184;2023-03-03T07:11:24;97607.66;;;-1.50;65.51
65534;BME280;53640;55.838;37.184;2023-03-03T07:17:54;97557.06;;;-1.93;64.65
65534;BME280;53640;55.838;37.184;2023-03-03T07:20:48;97598.78;;;-1.72;64.73
65534;BME280;53640;55.838;37.184;2023-03-03T07:25:51;97547.81;;;-1.97;63.74
65534;BME280;53640;55.838;37.184;2023-03-03T07:28:45;97615.50;;;-1.56;64.17
65534;BME280;53640;55.838;37.184;2023-03-03T07:31:35;97563.56;;;-1.95;64.20
65534;BME280;53640;55.838;37.184;2023-03-03T07:34:37;97617.16;;;-1.55;64.41
65534;BME280;53640;55.838;37.184;2023-03-03T07:37:15;97615.31;;;-1.55;64.21
65534;BME280;53640;55.838;37.184;2023-03-03T07:39:51;97576.28;;;-1.76;64.57
65534;BME280;53640;55.838;37.184;2023-03-03T07:42:26;97509.31;;;-2.22;64.41
65534;BME280;53640;55.838;37.184;2023-03-03T07:45:42;97472.78;;;-2.42;64.04
65534;BME280;53640;55.838;37.184;2023-03-03T07:48:23;97616.88;;;-1.46;64.32
65534;BME280;53640;55.838;37.184;2023-03-03T07:50:53;97617.97;;;-1.40;63.93
65534;BME280;53640;55.838;37.184;2023-03-03T07:53:29;97557.50;;;-1.74;63.89
65534;BME280;53640;55.838;37.184;2023-03-03T07:56:00;97528.91;;;-1.94;63.74
65534;BME280;53640;55.838;37.184;2023-03-03T07:58:37;97485.66;;;-2.09;63.09
65534;BME280;53640;55.838;37.184;2023-03-03T08:04:22;97596.47;;;-1.45;63.56
65534;BME280;53640;55.838;37.184;2023-03-03T08:07:24;97619.41;;;-1.23;63.32
65534;BME280;53640;55.838;37.184;2023-03-03T08:10:30;97604.25;;;-1.44;63.82
65534;BME280;53640;55.838;37.184;2023-03-03T08:13:50;97623.34;;;-1.19;63.52
65534;BME280;53640;55.838;37.184;2023-03-03T08:15:54;97500.56;;;-1.93;63.11
65534;BME280;53640;55.838;37.184;2023-03-03T08:18:26;97627.47;;;-1.16;62.24
65534;BME280;53640;55.838;37.184;2023-03-03T08:23:50;97637.63;;;-1.20;62.71
65534;BME280;53640;55.838;37.184;2023-03-03T08:26:20;97621.72;;;-1.20;62.45
65534;BME280;53640;55.838;37.184;2023-03-03T08:28:47;97580.47;;;-1.52;62.56
65534;BME280;53640;55.838;37.184;2023-03-03T08:31:13;97607.81;;;-1.37;61.43
65534;BME280;53640;55.838;37.184;2023-03-03T08:33:40;97612.28;;;-1.22;61.80
65534;BME280;53640;55.838;37.184;2023-03-03T08:36:07;97630.94;;;-1.16;62.13
65534;BME280;53640;55.838;37.184;2023-03-03T08:38:59;97528.19;;;-1.88;62.55
65534;BME280;53640;55.838;37.184;2023-03-03T08:41:29;97525.44;;;-1.79;62.70
65534;BME280;53640;55.838;37.184;2023-03-03T08:43:55;97645.38;;;-1.03;62.82
65534;BME280;53640;55.838;37.184;2023-03-03T08:46:22;97606.41;;;-1.32;63.36
65534;BME280;53640;55.838;37.184;2023-03-03T08:48:50;97636.59;;;-1.04;62.77
65534;BME280;53640;55.838;37.184;2023-03-03T08:51:17;97619.50;;;-1.16;62.40
65534;BME280;53640;55.838;37.184;2023-03-03T08:53:44;97642.72;;;-1.03;63.04
65534;BME280;53640;55.838;37.184;2023-03-03T08:56:10;97613.72;;;-1.05;63.08
65534;BME280;53640;55.838;37.184;2023-03-03T08:58:40;97632.94;;;-1.03;62.70
65534;BME280;53640;55.838;37.184;2023-03-03T09:01:14;97622.38;;;-0.96;61.98
65534;BME280;53640;55.838;37.184;2023-03-03T09:03:43;97570.47;;;-1.35;62.52
65534;BME280;53640;55.838;37.184;2023-03-03T09:06:11;97619.19;;;-1.06;61.99
65534;BME280;53640;55.838;37.184;2023-03-03T09:08:37;97652.19;;;-0.79;62.39
65534;BME280;53640;55.838;37.184;2023-03-03T09:11:14;97647.44;;;-0.84;62.04
65534;BME280;53640;55.838;37.184;2023-03-03T09:13:44;97640.88;;;-0.88;62.77
65534;BME280;53640;55.838;37.184;2023-03-03T09:16:17;97644.53;;;-0.89;62.81
65534;BME280;53640;55.838;37.184;2023-03-03T09:18:55;97561.28;;;-1.54;62.42
65534;BME280;53640;55.838;37.184;2023-03-03T09:21:29;97598.63;;;-1.19;62.50
65534;BME280;53640;55.838;37.184;2023-03-03T09:23:59;97620.78;;;-1.12;62.76
65534;BME280;53640;55.838;37.184;2023-03-03T09:29:17;97631.66;;;-1.07;62.08
65534;BME280;53640;55.838;37.184;2023-03-03T09:31:54;97658.75;;;-0.97;62.69
65534;BME280;53640;55.838;37.184;2023-03-03T09:34:37;97655.16;;;-0.89;62.39
65534;BME280;53640;55.838;37.184;2023-03-03T09:37:28;97662.47;;;-0.91;62.51
65534;BME280;53640;55.838;37.184;2023-03-03T09:39:58;97634.09;;;-1.05;62.47
65534;BME280;53640;55.838;37.184;2023-03-03T09:45:43;97559.41;;;-1.39;62.29
65534;BME280;53640;55.838;37.184;2023-03-03T09:54:03;97650.25;;;-0.71;62.92
65534;BME280;53640;55.838;37.184;2023-03-03T09:56:52;97646.59;;;-0.70;63.46
65534;BME280;53640;55.838;37.184;2023-03-03T09:59:51;97529.28;;;-1.31;62.33
65534;BME280;53640;55.838;37.184;2023-03-03T10:08:42;97574.75;;;-0.98;62.63
65534;BME280;53640;55.838;37.184;2023-03-03T10:17:38;97637.16;;;-0.51;63.19
65534;BME280;53640;55.838;37.184;2023-03-03T10:20:09;97615.72;;;-0.71;63.27
65534;BME280;53640;55.838;37.184;2023-03-03T10:22:42;97648.00;;;-0.52;63.88
65534;BME280;53640;55.838;37.184;2023-03-03T10:25:37;97599.94;;;-0.72;62.82
65534;BME280;53640;55.838;37.184;2023-03-03T10:37:11;97638.69;;;-0.20;62.50
65534;BME280;53640;55.838;37.184;2023-03-03T10:40:15;97645.19;;;-0.23;62.14
65534;BME280;53640;55.838;37.184;2023-03-03T10:46:02;97632.09;;;-0.24;60.25
65534;BME280;53640;55.838;37.184;2023-03-03T10:57:16;97628.56;;;-0.31;60.23
65534;BME280;53640;55.838;37.184;2023-03-03T11:01:13;97572.56;;;-0.73;60.04
65534;BME280;53640;55.838;37.184;2023-03-03T11:07:08;97646.22;;;-0.24;61.10
65534;BME280;53640;55.838;37.184;2023-03-03T11:09:46;97651.34;;;-0.22;61.87
65534;BME280;53640;55.838;37.184;2023-03-03T11:12:27;97648.63;;;-0.29;60.39
65534;BME280;53640;55.838;37.184;2023-03-03T11:20:55;97672.22;;;-0.19;60.09
65534;BME280;53640;55.838;37.184;2023-03-03T11:29:34;97587.56;;;-0.65;57.98
65534;BME280;53640;55.838;37.184;2023-03-03T11:32:24;97663.72;;;-0.08;58.11
65534;BME280;53640;55.838;37.184;2023-03-03T11:40:54;97618.69;;;-0.38;58.16
65534;BME280;53640;55.838;37.184;2023-03-03T11:43:38;97662.91;;;-0.08;58.61
65534;BME280;53640;55.838;37.184;2023-03-03T11:46:13;97492.78;;;-1.07;58.75
65534;BME280;53640;55.838;37.184;2023-03-03T11:48:59;97506.22;;;-1.09;58.42
65534;BME280;53640;55.838;37.184;2023-03-03T11:52:04;97514.31;;;-0.96;59.18
65534;BME280;53640;55.838;37.184;2023-03-03T11:54:48;97579.00;;;-0.61;58.85
65534;BME280;53640;55.838;37.184;2023-03-03T11:57:35;97593.97;;;-0.59;58.41
65534;BME280;53640;55.838;37.184;2023-03-03T12:06:36;97592.31;;;-0.82;57.93
65534;BME280;53640;55.838;37.184;2023-03-03T12:09:20;97637.03;;;-0.64;58.80
65534;BME280;53640;55.838;37.184;2023-03-03T12:12:07;97643.19;;;-0.64;59.21
65534;BME280;53640;55.838;37.184;2023-03-03T12:14:39;97671.59;;;-0.43;59.83
65534;BME280;53640;55.838;37.184;2023-03-03T12:22:52;97660.50;;;-0.46;59.33
65534;BME280;53640;55.838;37.184;2023-03-03T12:25:34;97648.75;;;-0.58;59.55
65534;BME280;53640;55.838;37.184;2023-03-03T12:31:20;97499.47;;;-1.48;59.82
65534;BME280;53640;55.838;37.184;2023-03-03T12:34:00;97532.94;;;-1.32;59.63
65534;BME280;53640;55.838;37.184;2023-03-03T12:39:27;97666.59;;;-0.52;59.67
65534;BME280;53640;55.838;37.184;2023-03-03T12:43:13;97545.22;;;-1.31;60.41
65534;BME280;53640;55.838;37.184;2023-03-03T12:48:24;97585.81;;;-0.94;60.68
65534;BME280;53640;55.838;37.184;2023-03-03T12:56:54;97578.25;;;-0.97;61.48
65534;BME280;53640;55.838;37.184;2023-03-03T13:04:56;97645.59;;;-0.47;62.07
65534;BME280;53640;55.838;37.184;2023-03-03T13:08:17;97632.44;;;-0.55;62.29
65534;BME280;53640;55.838;37.184;2023-03-03T13:20:18;97657.13;;;-0.19;63.17
65534;BME280;53640;55.838;37.184;2023-03-03T13:23:16;97537.47;;;-0.90;62.64
65534;BME280;53640;55.838;37.184;2023-03-03T13:25:55;97650.34;;;-0.21;63.44
65534;BME280;53640;55.838;37.184;2023-03-03T13:28:33;97649.31;;;-0.20;63.76
65534;BME280;53640;55.838;37.184;2023-03-03T13:31:14;97590.50;;;-0.60;63.18
65534;BME280;53640;55.838;37.184;2023-03-03T13:33:57;97553.22;;;-0.88;62.94
65534;BME280;53640;55.838;37.184;2023-03-03T13:36:40;97585.56;;;-0.63;62.37
65534;BME280;53640;55.838;37.184;2023-03-03T13:39:18;97501.34;;;-1.05;60.40
65534;BME280;53640;55.838;37.184;2023-03-03T13:44:42;97596.47;;;-0.30;65.00
65534;BME280;53640;55.838;37.184;2023-03-03T13:47:23;97655.34;;;0.17;64.38
65534;BME280;53640;55.838;37.184;2023-03-03T13:58:46;97577.53;;;0.08;65.29
65534;BME280;53640;55.838;37.184;2023-03-03T14:01:28;97628.72;;;0.45;65.00
65534;BME280;53640;55.838;37.184;2023-03-03T14:04:16;97651.97;;;0.64;64.13
65534;BME280;53640;55.838;37.184;2023-03-03T14:06:58;97597.09;;;0.28;63.04
65534;BME280;53640;55.838;37.184;2023-03-03T14:12:41;97654.72;;;0.43;59.49
65534;BME280;53640;55.838;37.184;2023-03-03T14:18:23;97644.28;;;0.13;58.50
65534;BME280;53640;55.838;37.184;2023-03-03T14:20:55;97621.38;;;-0.09;60.96
65534;BME280;53640;55.838;37.184;2023-03-03T14:23:32;97590.75;;;-0.27;60.50
65534;BME280;53640;55.838;37.184;2023-03-03T14:26:23;97648.66;;;-0.01;60.56
65534;BME280;53640;55.838;37.184;2023-03-03T14:28:50;97581.00;;;-0.48;60.63
65534;BME280;53640;55.838;37.184;2023-03-03T14:31:38;97606.63;;;-0.40;61.03
65534;BME280;53640;55.838;37.184;2023-03-03T14:34:29;97543.84;;;-0.84;61.93
65534;BME280;53640;55.838;37.184;2023-03-03T14:51:41;97660.88;;;-0.49;64.38
65534;BME280;53640;55.838;37.184;2023-03-03T14:57:39;97487.25;;;-1.64;62.39
65534;BME280;53640;55.838;37.184;2023-03-03T15:00:52;97569.81;;;-1.22;62.48
65534;BME280;53640;55.838;37.184;2023-03-03T15:08:48;97590.03;;;-1.21;63.90
65534;BME280;53640;55.838;37.184;2023-03-03T15:22:41;97690.84;;;-0.77;64.79
65534;BME280;53640;55.838;37.184;2023-03-03T15:38:23;97681.72;;;-0.89;65.65
65534;BME280;53640;55.838;37.184;2023-03-03T15:47:05;97684.94;;;-0.94;65.17
65534;BME280;53640;55.838;37.184;2023-03-03T15:57:14;97575.00;;;-1.65;65.14
65534;BME280;53640;55.838;37.184;2023-03-03T16:03:57;97574.91;;;-1.72;65.08
65534;BME280;53640;55.838;37.184;2023-03-03T16:12:59;97678.88;;;-1.02;64.40
65534;BME280;53640;55.838;37.184;2023-03-03T16:19:37;97598.31;;;-1.61;64.34
65534;BME280;53640;55.838;37.184;2023-03-03T16:22:28;97540.78;;;-2.04;63.65
65534;BME280;53640;55.838;37.184;2023-03-03T16:28:48;97675.53;;;-1.11;64.76
65534;BME280;53640;55.838;37.184;2023-03-03T16:31:47;97524.97;;;-2.13;64.17
65534;BME280;53640;55.838;37.184;2023-03-03T16:41:04;97686.34;;;-1.13;63.83
65534;BME280;53640;55.838;37.184;2023-03-03T16:43:53;97678.53;;;-1.14;63.76
65534;BME280;53640;55.838;37.184;2023-03-03T16:46:37;97601.06;;;-1.69;63.67
65534;BME280;53640;55.838;37.184;2023-03-03T16:52:28;97619.63;;;-1.54;64.53
65534;BME280;53640;55.838;37.184;2023-03-03T16:55:13;97574.09;;;-1.87;64.29
65534;BME280;53640;55.838;37.184;2023-03-03T16:57:56;97584.69;;;-1.72;64.20
65534;BME280;53640;55.838;37.184;2023-03-03T17:00:54;97614.50;;;-1.55;63.56
65534;BME280;53640;55.838;37.184;2023-03-03T17:03:43;97593.63;;;-1.73;63.81
65534;BME280;53640;55.838;37.184;2023-03-03T17:09:40;97689.88;;;-1.20;63.70
65534;BME280;53640;55.838;37.184;2023-03-03T17:13:37;97545.06;;;-2.03;63.99
65534;BME280;53640;55.838;37.184;2023-03-03T17:22:19;97671.41;;;-1.28;64.51
65534;BME280;53640;55.838;37.184;2023-03-03T17:25:08;97687.78;;;-1.25;64.46
65534;BME280;53640;55.838;37.184;2023-03-03T17:28:11;97677.97;;;-1.24;64.31
65534;BME280;53640;55.838;37.184;2023-03-03T17:36:45;97685.94;;;-1.24;64.13
65534;BME280;53640;55.838;37.184;2023-03-03T17:42:46;97533.13;;;-2.14;64.61
65534;BME280;53640;55.838;37.184;2023-03-03T17:45:15;97584.38;;;-1.92;64.85
65534;BME280;53640;55.838;37.184;2023-03-03T17:47:49;97566.28;;;-2.03;64.62
65534;BME280;53640;55.838;37.184;2023-03-03T17:56:02;97636.72;;;-1.56;64.44
65534;BME280;53640;55.838;37.184;2023-03-03T18:01:39;97675.97;;;-1.37;64.71
65534;BME280;53640;55.838;37.184;2023-03-03T18:04:28;97677.97;;;-1.39;64.92